Time;durP1;ratioP1;P1;durP2;ratioP2;P2;SDS_P1;SDS_P2;PMS_P1;PMS_P2;Temp;Humidity;BMP_temperature;BMP_pressure;BME280_temperature;BME280_humidity;BME280_pressure;Samples;Min_cycle;Max_cycle;Signal;HPM_P1;HPM_P2
2022/12/30 00:00:45;;;;;;;24.10;4.97;;;6.70;99.90;;;;;;5074145;28;20048;-71
2022/12/30 00:03:10;;;;;;;29.35;4.95;;;6.70;99.90;;;;;;5074092;28;20036;-72
2022/12/30 00:05:36;;;;;;;32.75;6.45;;;6.70;99.90;;;;;;5075332;28;20106;-72
2022/12/30 00:08:02;;;;;;;26.25;4.00;;;6.60;99.90;;;;;;5073987;28;20040;-71
2022/12/30 00:10:27;;;;;;;21.85;4.55;;;6.60;99.90;;;;;;5073972;28;20178;-71
2022/12/30 00:35:16;;;;;;;21.70;3.95;;;6.50;99.90;;;;;;5073511;28;20123;-71
2022/12/30 00:37:41;;;;;;;22.48;4.03;;;6.40;99.90;;;;;;5073264;28;20546;-71
2022/12/30 00:40:08;;;;;;;24.70;5.07;;;6.40;99.90;;;;;;5073397;28;20120;-71
2022/12/30 00:45:17;;;;;;;22.85;4.43;;;6.40;99.90;;;;;;5073303;28;20040;-71
2022/12/30 00:47:44;;;;;;;29.48;4.60;;;6.40;99.90;;;;;;5056391;28;20044;-71
2022/12/30 00:58:21;;;;;;;24.73;4.28;;;6.30;99.90;;;;;;5073314;28;20080;-71
2022/12/30 01:00:47;;;;;;;25.98;4.63;;;6.30;99.90;;;;;;5072984;28;20505;-71
2022/12/30 01:03:13;;;;;;;25.67;4.80;;;6.30;99.90;;;;;;5074148;28;20040;-71
2022/12/30 01:05:39;;;;;;;30.17;4.90;;;6.30;99.90;;;;;;5072891;28;20587;-71
2022/12/30 01:08:05;;;;;;;26.20;4.20;;;6.20;99.90;;;;;;5072732;28;20406;-71
2022/12/30 01:10:30;;;;;;;28.98;4.15;;;6.20;99.90;;;;;;5074018;28;20066;-71
2022/12/30 01:12:56;;;;;;;28.83;4.53;;;6.20;99.90;;;;;;5072739;28;20166;-71
2022/12/30 01:15:22;;;;;;;23.70;4.03;;;6.10;99.90;;;;;;5072672;28;20037;-71
2022/12/30 01:17:48;;;;;;;21.40;4.35;;;6.20;99.90;;;;;;5072512;28;20421;-72
2022/12/30 01:20:13;;;;;;;20.98;4.60;;;6.20;99.90;;;;;;5072656;28;20045;-72
2022/12/30 01:22:39;;;;;;;26.02;3.67;;;6.10;99.90;;;;;;5072588;28;20116;-72
2022/12/30 01:25:05;;;;;;;24.88;5.80;;;6.10;99.90;;;;;;5072504;28;20041;-72
2022/12/30 01:27:32;;;;;;;21.95;3.78;;;6.20;99.90;;;;;;5072668;28;20040;-71
2022/12/30 01:29:58;;;;;;;26.02;3.92;;;6.20;99.90;;;;;;5072442;28;20048;-72
2022/12/30 01:32:24;;;;;;;22.83;3.75;;;6.20;99.90;;;;;;5072355;28;20405;-72
2022/12/30 01:34:53;;;;;;;21.25;3.38;;;6.10;99.90;;;;;;5072542;28;20048;-71
2022/12/30 01:37:18;;;;;;;25.02;4.22;;;6.10;99.90;;;;;;5072185;28;20036;-72
2022/12/30 01:39:44;;;;;;;23.63;4.53;;;6.10;99.90;;;;;;5072263;28;20048;-72
2022/12/30 01:42:36;;;;;;;21.23;3.58;;;6.10;99.90;;;;;;5072202;28;20086;-71
2022/12/30 01:45:22;;;;;;;31.80;5.18;;;6.10;99.90;;;;;;5072477;28;20032;-71
2022/12/30 01:48:22;;;;;;;26.75;4.50;;;6.10;99.90;;;;;;5071929;28;20044;-71
2022/12/30 01:51:01;;;;;;;21.23;3.72;;;6.10;99.90;;;;;;5072156;28;20047;-72
2022/12/30 01:53:32;;;;;;;21.88;3.72;;;6.00;99.90;;;;;;5072388;28;20048;-71
2022/12/30 01:55:59;;;;;;;18.35;4.07;;;6.00;99.90;;;;;;5071949;28;20064;-71
2022/12/30 01:59:04;;;;;;;22.00;3.70;;;6.00;99.90;;;;;;5072048;28;20045;-72
2022/12/30 02:01:31;;;;;;;18.95;3.25;;;6.00;99.90;;;;;;5069873;28;20041;-71
2022/12/30 02:04:01;;;;;;;24.30;4.13;;;5.90;99.90;;;;;;5072212;28;20077;-71
2022/12/30 02:06:50;;;;;;;17.60;3.83;;;5.90;99.90;;;;;;5072159;28;20036;-71
2022/12/30 02:09:16;;;;;;;23.63;4.00;;;6.00;99.90;;;;;;5066535;28;20060;-71
2022/12/30 02:11:41;;;;;;;25.45;6.05;;;5.90;99.90;;;;;;5072414;28;20040;-72
2022/12/30 02:14:07;;;;;;;22.42;4.30;;;5.90;99.90;;;;;;5071866;28;20413;-72
2022/12/30 02:16:44;;;;;;;19.58;3.67;;;5.90;99.90;;;;;;5071700;28;20068;-71
2022/12/30 02:19:21;;;;;;;22.70;4.00;;;5.90;99.90;;;;;;5072119;28;20041;-72
2022/12/30 02:21:56;;;;;;;20.40;4.13;;;5.90;99.90;;;;;;5071797;28;20584;-72
2022/12/30 02:24:24;;;;;;;24.90;4.60;;;5.80;99.90;;;;;;5072158;28;20067;-71
2022/12/30 02:27:25;;;;;;;34.10;5.38;;;5.80;99.90;;;;;;5071668;28;20051;-71
2022/12/30 02:30:09;;;;;;;25.25;3.90;;;5.80;99.90;;;;;;5071777;28;20052;-72
2022/12/30 02:32:58;;;;;;;27.48;4.53;;;5.80;99.90;;;;;;5071700;28;20040;-71
2022/12/30 02:35:45;;;;;;;20.55;3.95;;;5.80;99.90;;;;;;5071936;28;20067;-72
2022/12/30 02:38:33;;;;;;;34.47;6.07;;;5.80;99.90;;;;;;5071879;28;20083;-71
2022/12/30 02:47:02;;;;;;;25.38;4.30;;;5.80;99.90;;;;;;5071918;28;20053;-71
2022/12/30 02:49:30;;;;;;;24.95;4.47;;;5.80;99.90;;;;;;5075322;28;20052;-72
2022/12/30 02:52:15;;;;;;;22.65;4.07;;;5.80;99.90;;;;;;5075684;28;20040;-72
2022/12/30 02:54:46;;;;;;;20.75;4.10;;;5.70;99.90;;;;;;5075450;28;20040;-71
2022/12/30 02:57:30;;;;;;;22.15;4.00;;;5.70;99.90;;;;;;5075230;28;20405;-71
2022/12/30 03:06:44;;;;;;;28.27;4.30;;;5.70;99.90;;;;;;5075416;28;20036;-71
2022/12/30 03:11:12;;;;;;;26.03;3.77;;;5.60;99.90;;;;;;5075419;28;20041;-71
2022/12/30 03:12:33;;;;;;;21.90;3.70;;;5.60;99.90;;;;;;5075117;28;20044;-71
2022/12/30 03:15:08;;;;;;;19.27;3.45;;;5.60;99.90;;;;;;5075031;28;20033;-71
2022/12/30 03:17:37;;;;;;;18.92;3.83;;;5.60;99.90;;;;;;5074870;28;20083;-71
2022/12/30 03:20:09;;;;;;;25.15;4.68;;;5.60;99.90;;;;;;5074903;28;20069;-71
2022/12/30 03:28:08;;;;;;;21.30;4.68;;;5.50;99.90;;;;;;5074764;28;20048;-71
2022/12/30 03:30:39;;;;;;;23.92;4.90;;;5.50;99.90;;;;;;5074775;28;20044;-71
2022/12/30 03:33:05;;;;;;;29.77;4.00;;;5.50;99.90;;;;;;5074976;28;20044;-71
2022/12/30 03:35:35;;;;;;;16.50;3.53;;;5.60;99.90;;;;;;5058223;28;20087;-71
2022/12/30 03:38:02;;;;;;;24.27;4.00;;;5.50;99.90;;;;;;5074467;28;20044;-71
2022/12/30 03:40:30;;;;;;;18.75;3.78;;;5.50;99.90;;;;;;5074554;28;20519;-71
2022/12/30 03:42:56;;;;;;;20.73;3.50;;;5.50;99.90;;;;;;5075880;28;20043;-71
2022/12/30 03:45:22;;;;;;;27.50;4.20;;;5.50;99.90;;;;;;5074677;28;20052;-71
2022/12/30 03:47:48;;;;;;;22.90;3.65;;;5.50;99.90;;;;;;5074237;28;20501;-71
2022/12/30 03:50:14;;;;;;;19.08;3.47;;;5.50;99.90;;;;;;5074475;28;20044;-71
2022/12/30 03:52:40;;;;;;;19.42;3.08;;;5.40;99.90;;;;;;5074344;28;20120;-71
2022/12/30 03:55:06;;;;;;;23.42;4.47;;;5.50;99.90;;;;;;5074291;28;20171;-71
2022/12/30 03:57:32;;;;;;;17.10;3.10;;;5.50;99.90;;;;;;5074181;28;20123;-71
2022/12/30 03:59:58;;;;;;;21.48;3.42;;;5.40;99.90;;;;;;5073066;28;20114;-71
2022/12/30 04:02:23;;;;;;;30.75;4.32;;;5.40;99.90;;;;;;5074208;28;20062;-71
2022/12/30 04:04:49;;;;;;;23.58;3.70;;;5.40;99.90;;;;;;5074329;28;20068;-71
2022/12/30 04:07:15;;;;;;;20.67;3.53;;;5.30;99.90;;;;;;5073994;28;20051;-71
2022/12/30 04:09:40;;;;;;;17.52;3.58;;;5.40;99.90;;;;;;5074049;28;20045;-71
2022/12/30 04:12:06;;;;;;;20.45;3.83;;;5.30;99.90;;;;;;5074273;28;20032;-71
2022/12/30 04:14:32;;;;;;;25.92;3.83;;;5.40;99.90;;;;;;5073945;28;20607;-71
2022/12/30 04:16:57;;;;;;;19.58;3.90;;;5.30;99.90;;;;;;5073747;28;20079;-71
2022/12/30 04:19:23;;;;;;;26.08;4.57;;;5.30;99.90;;;;;;5075105;28;20045;-71
2022/12/30 04:21:48;;;;;;;14.63;3.13;;;5.40;99.90;;;;;;5073799;28;20557;-71
2022/12/30 04:24:14;;;;;;;16.13;3.13;;;5.30;99.90;;;;;;5075016;28;20064;-71
2022/12/30 04:26:40;;;;;;;25.65;4.93;;;5.30;99.90;;;;;;5073888;28;20040;-71
2022/12/30 04:29:06;;;;;;;18.50;3.38;;;5.30;99.90;;;;;;5073670;28;20387;-72
2022/12/30 04:31:32;;;;;;;21.17;4.07;;;5.20;99.90;;;;;;5057168;28;20043;-71
2022/12/30 04:33:58;;;;;;;17.58;3.40;;;5.30;99.90;;;;;;5073854;28;20413;-72
2022/12/30 04:36:23;;;;;;;21.65;3.70;;;5.30;99.90;;;;;;5073369;28;20044;-71
2022/12/30 04:38:49;;;;;;;21.65;3.88;;;5.20;99.90;;;;;;5074965;28;20071;-71
2022/12/30 04:41:15;;;;;;;18.67;3.80;;;5.20;99.90;;;;;;5073638;28;20433;-71
2022/12/30 04:43:40;;;;;;;20.38;4.07;;;5.20;99.90;;;;;;5073345;28;20493;-71
2022/12/30 04:46:06;;;;;;;21.27;3.90;;;5.20;99.90;;;;;;5073253;28;20068;-71
2022/12/30 04:48:32;;;;;;;20.75;4.28;;;5.20;99.90;;;;;;5073072;28;20040;-71
2022/12/30 04:50:58;;;;;;;18.55;3.92;;;5.30;99.90;;;;;;5073455;28;20438;-72
2022/12/30 04:53:23;;;;;;;24.10;4.22;;;5.20;99.90;;;;;;5073183;28;20458;-71
2022/12/30 04:55:54;;;;;;;22.25;4.63;;;5.20;99.90;;;;;;5073041;28;20036;-71
2022/12/30 04:58:20;;;;;;;16.02;4.30;;;5.20;99.90;;;;;;5074911;28;20094;-71
2022/12/30 05:00:50;;;;;;;18.63;3.97;;;5.20;99.90;;;;;;5073274;28;20037;-71
2022/12/30 05:03:16;;;;;;;22.98;4.68;;;5.20;99.90;;;;;;5072962;28;20044;-72
2022/12/30 05:05:41;;;;;;;19.23;5.15;;;5.20;99.90;;;;;;5072879;28;20077;-71
2022/12/30 05:08:07;;;;;;;21.75;4.10;;;5.10;99.90;;;;;;5072851;28;20043;-71
2022/12/30 05:10:34;;;;;;;23.60;4.45;;;5.10;99.90;;;;;;5072541;28;20412;-71
2022/12/30 05:13:00;;;;;;;20.88;3.95;;;5.10;99.90;;;;;;5073065;28;20066;-71
2022/12/30 05:15:25;;;;;;;17.38;3.63;;;5.10;99.90;;;;;;5072697;28;20045;-71
2022/12/30 05:17:51;;;;;;;17.65;4.30;;;5.10;99.90;;;;;;5072537;28;20044;-72
2022/12/30 05:20:17;;;;;;;20.10;4.25;;;5.10;99.90;;;;;;5072877;28;20041;-72
2022/12/30 05:22:43;;;;;;;22.80;4.28;;;5.00;99.90;;;;;;5074350;28;20048;-71
2022/12/30 05:27:53;;;;;;;17.58;3.58;;;5.00;99.90;;;;;;5072441;28;20512;-71
2022/12/30 05:30:19;;;;;;;19.45;3.58;;;5.00;99.90;;;;;;5072438;28;20075;-72
2022/12/30 05:32:45;;;;;;;15.45;4.15;;;5.00;99.90;;;;;;5072403;28;20071;-71
2022/12/30 05:35:10;;;;;;;25.33;4.00;;;4.90;99.90;;;;;;5074150;28;20036;-71
2022/12/30 05:37:36;;;;;;;16.00;3.53;;;4.90;99.90;;;;;;5072196;28;20065;-71
2022/12/30 05:40:03;;;;;;;18.83;4.00;;;4.90;99.90;;;;;;5073809;28;20118;-71
2022/12/30 05:42:28;;;;;;;15.02;4.32;;;4.90;99.90;;;;;;5072551;28;20036;-71
2022/12/30 05:44:54;;;;;;;19.10;3.63;;;4.90;99.90;;;;;;5072189;28;20558;-71
2022/12/30 05:47:20;;;;;;;17.60;3.53;;;4.90;99.90;;;;;;5072118;28;20036;-71
2022/12/30 05:49:45;;;;;;;18.88;3.38;;;4.90;99.90;;;;;;5072022;28;20048;-71
2022/12/30 05:52:11;;;;;;;18.35;3.80;;;4.80;99.90;;;;;;5072117;28;20071;-71
2022/12/30 05:54:36;;;;;;;20.02;4.00;;;4.90;99.90;;;;;;5073312;28;20090;-71
2022/12/30 05:57:02;;;;;;;22.73;3.28;;;4.90;99.90;;;;;;5072041;28;20039;-71
2022/12/30 05:59:27;;;;;;;20.48;4.22;;;4.90;99.90;;;;;;5072051;28;20413;-71
2022/12/30 06:01:53;;;;;;;18.75;3.17;;;4.90;99.90;;;;;;5072024;28;20090;-71
2022/12/30 06:04:19;;;;;;;13.48;3.42;;;4.90;99.90;;;;;;5072254;28;20041;-71
2022/12/30 06:06:44;;;;;;;17.42;3.47;;;4.90;99.90;;;;;;5072157;28;20051;-71
2022/12/30 06:09:10;;;;;;;21.70;4.22;;;5.00;99.90;;;;;;5073731;28;20483;-71
2022/12/30 06:11:35;;;;;;;15.80;3.60;;;4.90;99.90;;;;;;5072148;28;20040;-71
2022/12/30 06:14:01;;;;;;;17.10;3.42;;;4.90;99.90;;;;;;5071856;28;20036;-71
2022/12/30 06:16:27;;;;;;;20.60;3.25;;;4.90;99.90;;;;;;5071723;28;20037;-71
2022/12/30 06:18:52;;;;;;;20.17;3.42;;;4.90;99.90;;;;;;5071754;28;20124;-72
2022/12/30 06:21:18;;;;;;;20.52;3.88;;;4.90;99.90;;;;;;5071494;28;20028;-72
2022/12/30 06:23:43;;;;;;;14.73;3.15;;;4.90;99.90;;;;;;5073473;28;20036;-71
2022/12/30 06:26:09;;;;;;;22.00;3.65;;;4.90;99.90;;;;;;5072918;28;20223;-71
2022/12/30 06:28:35;;;;;;;19.73;3.30;;;4.90;99.90;;;;;;5071969;28;20056;-71
2022/12/30 06:31:00;;;;;;;14.25;2.85;;;4.90;99.90;;;;;;5072975;28;20131;-71
2022/12/30 06:33:26;;;;;;;18.27;3.38;;;4.90;99.90;;;;;;5071922;28;20401;-71
2022/12/30 06:35:52;;;;;;;20.45;3.25;;;4.90;99.90;;;;;;5071855;28;20128;-71
2022/12/30 06:38:18;;;;;;;16.08;3.70;;;4.90;99.90;;;;;;5071572;28;20036;-71
2022/12/30 06:40:44;;;;;;;22.92;3.78;;;4.90;99.90;;;;;;5071566;28;20040;-71
2022/12/30 06:43:10;;;;;;;20.02;3.80;;;4.80;99.90;;;;;;5071846;28;20040;-71
2022/12/30 06:45:36;;;;;;;19.75;2.85;;;4.90;99.90;;;;;;5071578;28;20045;-71
2022/12/30 06:48:02;;;;;;;20.13;3.58;;;4.80;99.90;;;;;;5072809;28;20047;-71
2022/12/30 06:50:28;;;;;;;22.90;3.92;;;4.80;99.90;;;;;;5071606;28;20523;-71
2022/12/30 06:52:54;;;;;;;20.98;3.65;;;4.80;99.90;;;;;;5071494;28;20539;-71
2022/12/30 06:55:21;;;;;;;20.92;3.47;;;4.80;99.90;;;;;;5071492;28;20044;-71
2022/12/30 06:57:47;;;;;;;16.58;3.17;;;4.70;99.90;;;;;;5071300;28;20497;-71
2022/12/30 07:00:14;;;;;;;18.52;3.40;;;4.80;99.90;;;;;;5071450;28;20051;-72
2022/12/30 07:02:39;;;;;;;20.35;3.78;;;4.70;99.90;;;;;;5071690;28;20063;-71
2022/12/30 07:05:05;;;;;;;20.77;3.78;;;4.70;99.90;;;;;;5072228;28;20485;-71
2022/12/30 07:07:31;;;;;;;20.50;3.55;;;4.70;99.90;;;;;;5072554;28;20492;-72
2022/12/30 07:09:57;;;;;;;16.88;3.30;;;4.70;99.90;;;;;;5071341;28;20044;-71
2022/12/30 07:12:22;;;;;;;18.77;3.30;;;4.80;99.90;;;;;;5071360;28;20115;-71
2022/12/30 07:14:48;;;;;;;21.55;3.63;;;4.70;99.90;;;;;;5071243;28;20049;-72
2022/12/30 07:17:13;;;;;;;18.80;3.80;;;4.70;99.90;;;;;;5071128;28;20071;-71
2022/12/30 07:19:39;;;;;;;20.77;3.70;;;4.70;99.90;;;;;;5072744;28;20051;-73
2022/12/30 07:22:05;;;;;;;15.45;3.22;;;4.80;99.90;;;;;;5071200;28;20033;-72
2022/12/30 07:24:30;;;;;;;19.17;4.03;;;4.70;99.90;;;;;;5071201;28;20090;-71
2022/12/30 07:26:56;;;;;;;19.52;3.17;;;4.70;99.90;;;;;;5071150;28;20119;-71
2022/12/30 07:29:21;;;;;;;24.02;3.72;;;4.70;99.90;;;;;;5071155;28;20039;-72
2022/12/30 07:31:47;;;;;;;15.48;3.75;;;4.80;99.90;;;;;;5071128;28;20070;-71
2022/12/30 07:34:13;;;;;;;17.38;3.72;;;4.80;99.90;;;;;;5073943;28;20040;-72
2022/12/30 07:36:38;;;;;;;20.00;3.80;;;4.80;99.90;;;;;;5074591;28;20405;-71
2022/12/30 07:39:04;;;;;;;18.65;3.10;;;4.70;99.90;;;;;;5074603;28;20044;-72
2022/12/30 07:41:29;;;;;;;19.50;3.85;;;4.70;99.90;;;;;;5074552;28;20041;-71
2022/12/30 07:43:55;;;;;;;20.70;3.90;;;4.80;99.90;;;;;;5074551;28;20044;-71
2022/12/30 07:46:20;;;;;;;16.83;3.40;;;4.80;99.90;;;;;;5074813;28;20057;-71
2022/12/30 07:48:46;;;;;;;15.93;3.30;;;4.80;99.90;;;;;;5074655;28;20052;-72
2022/12/30 07:51:14;;;;;;;19.35;3.35;;;4.80;99.90;;;;;;5074422;28;20558;-72
2022/12/30 07:53:41;;;;;;;19.85;3.97;;;4.80;99.90;;;;;;5074354;28;20059;-72
2022/12/30 07:56:09;;;;;;;19.35;3.88;;;4.80;99.90;;;;;;5074307;28;20051;-71
2022/12/30 07:58:35;;;;;;;20.80;3.80;;;4.80;99.90;;;;;;5074546;28;20464;-71
2022/12/30 08:01:05;;;;;;;18.42;4.07;;;4.80;99.90;;;;;;5074205;28;20123;-71
2022/12/30 08:03:31;;;;;;;19.95;3.80;;;4.80;99.90;;;;;;5074382;28;20129;-71
2022/12/30 08:06:02;;;;;;;14.23;2.90;;;4.80;99.90;;;;;;5074066;28;20119;-71
2022/12/30 08:08:27;;;;;;;19.33;3.55;;;4.80;99.90;;;;;;5074146;28;20040;-71
2022/12/30 08:10:55;;;;;;;20.58;3.75;;;4.80;99.90;;;;;;5074297;28;20116;-71
2022/12/30 08:13:20;;;;;;;17.90;2.83;;;4.80;99.90;;;;;;5075498;28;20062;-71
2022/12/30 08:15:46;;;;;;;24.45;3.47;;;4.90;99.90;;;;;;5073945;28;20041;-72
2022/12/30 08:18:11;;;;;;;17.83;3.38;;;4.90;99.90;;;;;;5073953;28;20068;-72
2022/12/30 08:20:37;;;;;;;17.58;3.15;;;4.90;99.90;;;;;;5073782;28;20041;-72
2022/12/30 08:23:02;;;;;;;16.67;3.58;;;4.90;99.90;;;;;;5073789;28;20036;-72
2022/12/30 08:25:28;;;;;;;18.35;3.88;;;4.90;99.90;;;;;;5073667;28;20036;-71
2022/12/30 08:27:53;;;;;;;23.80;4.50;;;4.90;99.90;;;;;;5075128;28;20120;-72
2022/12/30 08:30:19;;;;;;;21.27;3.40;;;4.90;99.90;;;;;;5073654;28;20079;-72
2022/12/30 08:32:44;;;;;;;18.75;3.33;;;4.90;99.90;;;;;;5074834;28;20025;-72
2022/12/30 08:35:10;;;;;;;19.00;3.95;;;4.90;99.90;;;;;;5073861;28;20437;-72
2022/12/30 08:37:36;;;;;;;17.23;3.45;;;4.90;99.90;;;;;;5073393;28;20386;-72
2022/12/30 08:40:02;;;;;;;16.15;3.25;;;5.00;99.90;;;;;;5073503;28;20075;-72
2022/12/30 08:42:27;;;;;;;23.42;3.25;;;5.00;99.90;;;;;;5073423;28;20040;-72
2022/12/30 08:44:53;;;;;;;19.38;3.58;;;5.00;99.90;;;;;;5072752;28;20048;-71
2022/12/30 08:47:18;;;;;;;16.17;3.70;;;5.00;99.90;;;;;;5075099;28;20050;-72
2022/12/30 08:49:44;;;;;;;19.08;3.60;;;5.00;99.90;;;;;;5073097;28;20131;-72
2022/12/30 08:52:10;;;;;;;19.08;2.85;;;5.00;99.90;;;;;;5056861;28;20398;-72
2022/12/30 08:54:35;;;;;;;18.00;3.15;;;5.10;99.90;;;;;;5073095;28;20401;-73
2022/12/30 08:57:01;;;;;;;18.60;3.20;;;5.10;99.90;;;;;;5073189;28;20041;-72
2022/12/30 08:59:28;;;;;;;14.95;2.83;;;5.10;99.90;;;;;;5073357;28;20124;-72
2022/12/30 09:01:53;;;;;;;15.75;3.42;;;5.10;99.90;;;;;;5072992;28;20119;-72
2022/12/30 09:04:19;;;;;;;16.73;3.35;;;5.20;99.90;;;;;;5056284;28;20036;-72
2022/12/30 09:06:45;;;;;;;17.95;3.28;;;5.20;99.90;;;;;;5073100;28;20043;-72
2022/12/30 09:09:13;;;;;;;10.07;2.42;;;5.30;99.90;;;;;;5073097;28;20401;-72
2022/12/30 09:11:40;;;;;;;16.67;3.05;;;5.30;99.90;;;;;;5072794;28;20094;-72
2022/12/30 09:14:08;;;;;;;16.60;2.90;;;5.40;99.90;;;;;;5072794;28;20135;-72
2022/12/30 09:16:35;;;;;;;15.48;2.85;;;5.40;99.90;;;;;;5072582;28;20041;-72
2022/12/30 09:19:00;;;;;;;14.35;3.35;;;5.40;99.90;;;;;;5072676;28;20042;-72
2022/12/30 09:21:26;;;;;;;14.35;2.58;;;5.50;99.90;;;;;;5072928;28;20127;-72
2022/12/30 09:23:52;;;;;;;15.55;3.80;;;5.50;99.90;;;;;;5072606;28;20041;-72
2022/12/30 09:26:20;;;;;;;14.73;2.55;;;5.50;99.90;;;;;;5072469;28;20032;-73
2022/12/30 09:28:46;;;;;;;13.70;3.17;;;5.60;99.90;;;;;;5056249;28;20471;-72
2022/12/30 09:31:12;;;;;;;13.90;3.72;;;5.60;99.90;;;;;;5072831;28;20040;-72
2022/12/30 09:33:38;;;;;;;21.95;3.63;;;5.70;99.90;;;;;;5072382;28;20409;-72
2022/12/30 09:36:05;;;;;;;13.75;2.90;;;5.70;99.90;;;;;;5072497;28;20043;-72
2022/12/30 09:38:30;;;;;;;15.45;3.58;;;5.70;99.90;;;;;;5055707;28;20040;-73
2022/12/30 09:41:11;;;;;;;11.73;2.97;;;5.70;99.90;;;;;;5072326;28;20043;-73
2022/12/30 09:43:46;;;;;;;10.63;3.13;;;5.70;99.90;;;;;;5072297;28;20170;-72
2022/12/30 09:46:41;;;;;;;15.48;2.80;;;5.80;99.90;;;;;;5072172;28;20516;-72
2022/12/30 09:49:34;;;;;;;13.60;3.08;;;5.80;99.90;;;;;;5072128;28;20040;-72
2022/12/30 09:52:16;;;;;;;16.30;2.83;;;5.90;99.90;;;;;;5068132;28;20523;-73
2022/12/30 09:54:49;;;;;;;13.02;3.15;;;5.90;99.90;;;;;;5072194;28;20047;-73
2022/12/30 09:57:31;;;;;;;14.18;3.10;;;5.90;99.90;;;;;;5071760;28;20131;-73
2022/12/30 10:00:02;;;;;;;18.67;3.25;;;6.00;99.90;;;;;;5055397;28;20123;-72
2022/12/30 10:02:31;;;;;;;15.52;2.50;;;6.00;99.90;;;;;;5072043;28;20036;-73
2022/12/30 10:04:59;;;;;;;12.85;2.65;;;6.00;99.90;;;;;;5071996;28;20043;-72
2022/12/30 10:07:41;;;;;;;15.38;2.75;;;6.10;99.90;;;;;;5071873;28;20048;-72
2022/12/30 10:10:45;;;;;;;8.70;2.47;;;6.10;99.90;;;;;;5072082;28;20036;-72
2022/12/30 10:13:21;;;;;;;12.82;2.50;;;6.20;99.90;;;;;;5071412;28;20056;-72
2022/12/30 10:16:08;;;;;;;15.10;2.67;;;6.20;99.90;;;;;;5072018;28;20401;-72
2022/12/30 10:18:46;;;;;;;9.98;2.90;;;6.30;99.90;;;;;;5071877;28;20048;-72
2022/12/30 10:21:31;;;;;;;9.60;2.40;;;6.30;99.90;;;;;;5071860;28;20056;-72
2022/12/30 10:24:22;;;;;;;15.80;2.50;;;6.30;99.90;;;;;;5073070;28;20079;-72
2022/12/30 10:26:50;;;;;;;11.80;3.00;;;6.40;99.90;;;;;;5064668;28;20060;-72
2022/12/30 10:29:34;;;;;;;12.75;2.35;;;6.40;99.90;;;;;;5071734;28;20098;-73
2022/12/30 10:32:14;;;;;;;10.30;2.40;;;6.40;99.90;;;;;;5071800;28;20052;-73
2022/12/30 10:34:40;;;;;;;9.85;2.38;;;6.50;99.90;;;;;;5072002;28;20040;-72
2022/12/30 10:37:15;;;;;;;12.48;2.85;;;6.50;99.90;;;;;;5071693;28;20044;-72
2022/12/30 10:39:49;;;;;;;15.75;2.75;;;6.60;99.90;;;;;;5071715;28;20068;-72
2022/12/30 10:42:44;;;;;;;12.43;2.58;;;6.60;99.90;;;;;;5071671;28;20079;-72
2022/12/30 10:45:19;;;;;;;7.53;2.05;;;6.70;99.90;;;;;;5073100;28;20037;-72
2022/12/30 10:48:02;;;;;;;12.30;2.30;;;6.80;99.90;;;;;;5071620;28;20532;-72
2022/12/30 10:50:40;;;;;;;9.10;2.28;;;6.80;99.90;;;;;;5071904;28;20133;-72
2022/12/30 10:53:13;;;;;;;9.05;2.00;;;6.80;99.90;;;;;;5071779;28;20040;-72
2022/12/30 10:55:49;;;;;;;8.48;1.77;;;6.90;99.90;;;;;;5071529;28;20451;-72
2022/12/30 10:58:41;;;;;;;8.05;1.90;;;6.90;99.90;;;;;;5071407;28;20048;-73
2022/12/30 11:01:30;;;;;;;9.80;1.95;;;6.90;99.90;;;;;;5071527;28;20036;-72
2022/12/30 11:03:58;;;;;;;9.18;1.80;;;7.00;99.90;;;;;;5070926;28;20421;-72
2022/12/30 11:06:30;;;;;;;6.80;1.83;;;7.00;99.90;;;;;;5071330;28;20105;-72
2022/12/30 11:09:20;;;;;;;9.30;2.00;;;7.00;99.90;;;;;;5073688;28;20044;-72
2022/12/30 11:14:43;;;;;;;9.60;2.03;;;7.10;99.90;;;;;;5075359;28;20076;-72
2022/12/30 11:17:15;;;;;;;11.27;1.98;;;7.10;99.90;;;;;;5075221;28;20041;-72
2022/12/30 11:19:42;;;;;;;6.55;1.60;;;7.10;99.90;;;;;;5076246;28;20085;-72
2022/12/30 11:22:09;;;;;;;9.88;1.90;;;7.20;99.90;;;;;;5076462;28;20126;-72
2022/12/30 11:24:36;;;;;;;7.13;1.67;;;7.20;99.90;;;;;;5075102;28;20049;-72
2022/12/30 11:27:03;;;;;;;9.65;2.72;;;7.20;99.90;;;;;;5074801;28;20055;-72
2022/12/30 11:29:33;;;;;;;11.50;2.08;;;7.30;99.90;;;;;;5074815;28;20051;-72
2022/12/30 11:32:08;;;;;;;12.02;2.20;;;7.30;99.90;;;;;;5074802;28;20036;-72
2022/12/30 11:34:36;;;;;;;7.15;2.08;;;7.30;99.90;;;;;;5074756;28;20056;-73
2022/12/30 11:37:30;;;;;;;8.13;2.10;;;7.30;99.90;;;;;;5074540;28;20075;-72
2022/12/30 11:40:17;;;;;;;8.90;1.80;;;7.40;99.90;;;;;;5074578;28;20040;-72
2022/12/30 11:42:42;;;;;;;8.90;1.80;;;7.40;99.90;;;;;;5074955;28;20424;-72
2022/12/30 11:45:18;;;;;;;9.48;1.90;;;7.40;99.90;;;;;;5075068;28;20043;-72
2022/12/30 11:47:46;;;;;;;14.88;2.10;;;7.40;99.90;;;;;;5074493;28;20482;-72
2022/12/30 11:50:19;;;;;;;8.60;1.83;;;7.40;99.90;;;;;;5074466;28;20055;-72
2022/12/30 11:52:51;;;;;;;7.82;1.70;;;7.50;99.90;;;;;;5074435;28;20158;-72
2022/12/30 11:55:21;;;;;;;10.40;1.80;;;7.50;99.90;;;;;;5074371;28;20052;-72
2022/12/30 11:57:47;;;;;;;8.55;1.50;;;7.50;99.90;;;;;;5057616;28;20295;-73
2022/12/30 12:00:13;;;;;;;8.20;1.80;;;7.60;99.90;;;;;;5075613;28;20547;-73
2022/12/30 12:02:44;;;;;;;7.15;1.73;;;7.60;99.90;;;;;;5057564;28;20409;-72
2022/12/30 12:05:29;;;;;;;9.07;2.10;;;7.60;99.90;;;;;;5074473;28;20040;-73
2022/12/30 12:08:00;;;;;;;11.23;2.00;;;7.70;99.90;;;;;;5074616;28;20044;-73
2022/12/30 12:10:34;;;;;;;9.23;1.88;;;7.60;99.90;;;;;;5074190;28;20048;-73
2022/12/30 12:13:06;;;;;;;20.48;2.03;;;7.70;99.90;;;;;;5074404;28;20045;-73
2022/12/30 12:15:48;;;;;;;7.63;1.83;;;7.70;99.90;;;;;;5057551;28;20048;-73
2022/12/30 12:18:22;;;;;;;6.50;1.67;;;7.70;99.90;;;;;;5074026;28;20127;-72
2022/12/30 12:20:54;;;;;;;8.63;1.83;;;7.80;99.90;;;;;;5056490;28;20497;-72
2022/12/30 12:24:02;;;;;;;8.38;1.60;;;7.80;99.90;;;;;;5073896;28;20082;-72
2022/12/30 12:26:34;;;;;;;7.53;1.73;;;7.80;99.90;;;;;;5066448;28;20044;-73
2022/12/30 12:29:00;;;;;;;5.80;1.67;;;7.80;99.90;;;;;;5073896;28;20033;-72
2022/12/30 12:31:57;;;;;;;6.75;1.48;;;7.80;99.90;;;;;;5073656;28;20040;-73
2022/12/30 12:34:23;;;;;;;9.35;1.25;;;7.90;99.90;;;;;;5074474;28;20051;-73
2022/12/30 12:37:07;;;;;;;7.80;1.70;;;7.90;99.90;;;;;;5057029;28;20127;-72
2022/12/30 12:40:00;;;;;;;7.45;1.60;;;7.90;99.90;;;;;;5073763;28;20409;-72
2022/12/30 12:42:39;;;;;;;6.82;1.67;;;8.00;99.90;;;;;;5074591;28;20044;-72
2022/12/30 12:45:13;;;;;;;6.68;1.50;;;7.90;99.90;;;;;;5073505;28;20043;-72
2022/12/30 12:48:26;;;;;;;5.90;1.48;;;8.00;99.90;;;;;;5073291;28;20089;-72
2022/12/30 12:51:29;;;;;;;9.00;2.20;;;8.00;99.90;;;;;;5019317;28;20053;-72
2022/12/30 12:54:32;;;;;;;4.57;1.40;;;8.00;99.90;;;;;;5035722;28;20056;-73
2022/12/30 12:57:24;;;;;;;8.27;1.75;;;8.00;99.90;;;;;;5035541;28;20045;-72
2022/12/30 13:00:12;;;;;;;6.47;1.75;;;8.10;99.90;;;;;;5035667;28;20040;-72
2022/12/30 13:02:56;;;;;;;6.47;1.65;;;8.10;99.90;;;;;;5035534;28;20072;-73
2022/12/30 13:05:24;;;;;;;;;;;8.20;99.90;;;;;;5035963;28;20044;-72
2022/12/30 13:08:14;;;;;;;10.25;2.13;;;8.10;99.90;;;;;;5035798;28;19924;-72
2022/12/30 13:11:00;;;;;;;8.60;1.63;;;8.20;99.90;;;;;;5035429;28;20087;-72
2022/12/30 13:13:37;;;;;;;5.50;1.40;;;8.20;99.90;;;;;;5035345;28;20048;-71
2022/12/30 13:16:13;;;;;;;9.18;1.67;;;8.20;99.90;;;;;;5035235;28;20045;-71
2022/12/30 13:18:43;;;;;;;7.13;1.40;;;8.20;99.90;;;;;;5035290;28;20100;-71
2022/12/30 13:21:18;;;;;;;10.02;1.83;;;8.30;99.90;;;;;;5035666;28;20452;-72
2022/12/30 13:23:50;;;;;;;7.55;1.60;;;8.30;99.90;;;;;;5035159;28;20037;-72
2022/12/30 13:26:15;;;;;;;10.77;1.65;;;8.30;99.90;;;;;;5040295;28;20052;-71
2022/12/30 13:28:46;;;;;;;6.45;1.58;;;8.30;99.90;;;;;;5072534;28;20032;-72
2022/12/30 13:31:54;;;;;;;8.55;1.83;;;8.40;99.90;;;;;;5072297;28;20120;-72
2022/12/30 13:34:49;;;;;;;6.93;1.65;;;8.40;99.90;;;;;;5072470;28;20045;-72
2022/12/30 13:37:48;;;;;;;9.05;2.08;;;8.40;99.90;;;;;;5034593;28;20052;-72
2022/12/30 13:40:18;;;;;;;8.85;1.80;;;8.50;99.90;;;;;;5034728;28;20045;-72
2022/12/30 13:42:58;;;;;;;5.88;1.50;;;8.40;99.90;;;;;;5035065;28;20053;-73
2022/12/30 13:45:28;;;;;;;7.32;1.40;;;8.50;99.90;;;;;;5034861;28;20073;-72
2022/12/30 13:48:10;;;;;;;5.45;1.23;;;8.50;99.90;;;;;;5034508;28;20135;-72
2022/12/30 13:50:38;;;;;;;6.28;1.48;;;8.60;99.90;;;;;;5034743;28;20056;-72
2022/12/30 13:53:24;;;;;;;6.50;1.63;;;8.60;99.90;;;;;;5034959;28;20142;-72
2022/12/30 13:55:51;;;;;;;7.03;1.30;;;8.60;99.90;;;;;;5002146;28;20053;-72
2022/12/30 13:58:24;;;;;;;6.75;1.27;;;8.60;99.90;;;;;;5034485;28;20095;-72
2022/12/30 14:01:18;;;;;;;5.50;1.60;;;8.70;99.90;;;;;;5034644;28;20128;-72
2022/12/30 14:03:45;;;;;;;9.52;1.38;;;8.70;99.90;;;;;;5034319;28;20051;-72
2022/12/30 14:06:49;;;;;;;7.57;1.50;;;8.70;99.90;;;;;;5034653;28;20073;-72
2022/12/30 14:09:22;;;;;;;6.78;1.27;;;8.70;99.90;;;;;;5026625;28;20133;-72